Time;durP1;ratioP1;P1;durP2;ratioP2;P2;SDS_P1;SDS_P2;PMS_P1;PMS_P2;Temp;Humidity;BMP_temperature;BMP_pressure;BME280_temperature;BME280_humidity;BME280_pressure;Samples;Min_cycle;Max_cycle;Signal;HPM_P1;HPM_P2
2024/01/10 07:46:39;;;;;;;79.43;47.23;;;-3.70;99.90;;;;;;5071508;28;20383;-67
2024/01/10 07:49:05;;;;;;;96.37;55.87;;;-3.90;99.90;;;;;;5071288;28;20028;-67
2024/01/10 07:51:32;;;;;;;71.20;45.73;;;-3.50;99.90;;;;;;5071043;28;20078;-67
2024/01/10 07:53:59;;;;;;;223.13;135.43;;;-2.60;99.90;;;;;;5070938;28;20108;-64
2024/01/10 07:56:25;;;;;;;193.37;120.17;;;-1.30;99.90;;;;;;5071014;28;20020;-70
2024/01/10 07:58:51;;;;;;;216.33;132.93;;;0.20;91.50;;;;;;5071058;28;20025;-69
2024/01/10 08:01:17;;;;;;;134.75;86.20;;;1.30;70.50;;;;;;5069523;28;20027;-68
2024/01/10 08:03:43;;;;;;;132.35;82.57;;;2.30;69.60;;;;;;5070804;28;20074;-69
2024/01/10 08:06:12;;;;;;;114.97;76.43;;;3.40;61.50;;;;;;5070294;28;20032;-66
2024/01/10 08:08:37;;;;;;;119.38;79.05;;;4.30;57.00;;;;;;5070851;28;20397;-69
2024/01/10 08:11:03;;;;;;;109.35;72.40;;;5.10;52.30;;;;;;5070656;28;20023;-65
2024/01/10 08:13:29;;;;;;;113.38;73.43;;;5.70;50.50;;;;;;5070947;28;20033;-68
2024/01/10 08:15:55;;;;;;;100.10;69.07;;;6.20;46.60;;;;;;5070441;28;20103;-70
2024/01/10 08:18:20;;;;;;;92.82;62.90;;;6.60;45.70;;;;;;5070752;28;20029;-78
2024/01/10 08:20:46;;;;;;;87.32;61.30;;;6.70;44.20;;;;;;5070533;28;20100;-71
2024/01/10 08:23:12;;;;;;;90.72;64.95;;;6.60;45.20;;;;;;5070472;28;20021;-73
2024/01/10 08:25:38;;;;;;;121.05;83.78;;;6.40;44.40;;;;;;5070015;28;20086;-62
2024/01/10 08:28:04;;;;;;;102.60;72.00;;;6.40;42.70;;;;;;5070170;28;20017;-67
2024/01/10 08:30:29;;;;;;;98.65;68.45;;;6.10;45.50;;;;;;5069910;28;20112;-64
2024/01/10 08:32:55;;;;;;;97.32;67.80;;;6.20;44.30;;;;;;5070403;28;20043;-67
2024/01/10 08:35:21;;;;;;;90.00;62.83;;;6.30;45.40;;;;;;5069987;28;20521;-75
2024/01/10 08:37:46;;;;;;;92.97;61.38;;;6.80;45.50;;;;;;5070294;28;20025;-78
2024/01/10 08:40:14;;;;;;;86.50;60.95;;;7.20;44.50;;;;;;5069824;28;20024;-69
2024/01/10 08:42:41;;;;;;;86.00;58.33;;;7.20;44.00;;;;;;5069885;28;20021;-68
2024/01/10 08:45:09;;;;;;;86.65;60.45;;;7.60;44.10;;;;;;5069369;28;20033;-70
2024/01/10 08:47:35;;;;;;;83.57;59.80;;;8.20;42.80;;;;;;5056962;28;20065;-73
2024/01/10 08:52:39;;;;;;;83.43;57.97;;;8.90;41.30;;;;;;5141673;22;20276;-64
2024/01/10 08:55:22;;;;;;;87.60;61.65;;;8.70;40.30;;;;;;5052879;28;20045;-63
2024/01/10 08:57:48;;;;;;;94.40;69.78;;;8.50;40.90;;;;;;5037045;28;20025;-61
2024/01/10 09:00:17;;;;;;;87.25;61.85;;;8.00;40.90;;;;;;5034244;28;20490;-65
2024/01/10 09:02:42;;;;;;;91.72;61.63;;;7.50;42.20;;;;;;5034326;28;20018;-59
2024/01/10 09:05:09;;;;;;;76.50;53.70;;;7.40;42.90;;;;;;5035471;28;20072;-63
2024/01/10 09:07:36;;;;;;;89.72;57.80;;;7.40;44.00;;;;;;5035652;28;20471;-60
2024/01/10 09:10:02;;;;;;;92.78;57.53;;;7.10;42.60;;;;;;5034537;28;20047;-64
2024/01/10 09:12:28;;;;;;;74.35;50.10;;;6.70;43.90;;;;;;5033598;28;20531;-61
2024/01/10 09:14:54;;;;;;;67.10;47.05;;;6.40;45.90;;;;;;5033240;28;20029;-64
2024/01/10 09:17:20;;;;;;;62.00;42.17;;;6.30;45.90;;;;;;5034044;28;20276;-67
2024/01/10 09:19:45;;;;;;;64.18;41.88;;;6.20;46.30;;;;;;5033811;28;20026;-63
2024/01/10 09:22:11;;;;;;;55.95;39.40;;;5.90;45.90;;;;;;5034510;28;20521;-64
2024/01/10 09:24:37;;;;;;;57.97;38.75;;;5.60;46.70;;;;;;5034231;28;20037;-63
2024/01/10 09:27:03;;;;;;;52.35;36.33;;;5.60;47.40;;;;;;5034920;28;20024;-62
2024/01/10 09:29:28;;;;;;;54.45;36.53;;;5.50;47.50;;;;;;5030185;28;20474;-63
2024/01/10 09:31:54;;;;;;;52.78;36.35;;;5.60;48.20;;;;;;5041089;28;20044;-63
2024/01/10 09:34:20;;;;;;;104.85;64.18;;;5.70;48.40;;;;;;5037491;28;20056;-61
2024/01/10 09:36:46;;;;;;;70.18;47.35;;;5.60;46.10;;;;;;5034304;28;20025;-60
2024/01/10 09:39:17;;;;;;;66.43;45.20;;;5.50;48.60;;;;;;5033452;28;20018;-67
2024/01/10 09:41:52;;;;;;;61.72;43.17;;;5.60;48.00;;;;;;5033577;28;20029;-62
2024/01/10 09:44:23;;;;;;;62.28;42.90;;;5.70;48.30;;;;;;5035056;28;20037;-65
2024/01/10 09:47:03;;;;;;;62.13;38.22;;;5.90;48.50;;;;;;5035141;28;20022;-66
2024/01/10 09:49:35;;;;;;;48.42;35.38;;;6.20;47.40;;;;;;5035195;28;20032;-63
2024/01/10 09:52:04;;;;;;;53.17;36.83;;;6.30;48.00;;;;;;5034836;28;20046;-65
2024/01/10 09:54:31;;;;;;;46.63;34.67;;;6.60;47.30;;;;;;5031355;28;20017;-64
2024/01/10 09:56:59;;;;;;;49.05;34.63;;;6.60;47.40;;;;;;5033381;28;20040;-65
2024/01/10 09:59:25;;;;;;;45.38;32.58;;;6.70;46.80;;;;;;5034828;28;20026;-64
2024/01/10 10:01:53;;;;;;;44.58;31.73;;;6.80;47.00;;;;;;5034621;28;20087;-62
2024/01/10 10:04:20;;;;;;;42.70;29.45;;;7.10;46.30;;;;;;5034248;28;20044;-63
2024/01/10 10:06:46;;;;;;;41.67;32.13;;;7.30;45.70;;;;;;5034765;28;20064;-65
2024/01/10 10:09:12;;;;;;;52.53;37.67;;;7.50;45.80;;;;;;5033641;28;20475;-58
2024/01/10 10:11:38;;;;;;;61.63;40.85;;;7.40;45.30;;;;;;5034349;28;20434;-63
2024/01/10 10:14:18;;;;;;;63.78;43.75;;;7.40;44.90;;;;;;5034552;28;20105;-62
2024/01/10 10:16:44;;;;;;;52.65;35.05;;;6.90;44.70;;;;;;5034353;28;20076;-67
2024/01/10 10:19:12;;;;;;;49.88;35.88;;;6.70;46.10;;;;;;5034038;28;20018;-64
2024/01/10 10:21:38;;;;;;;49.03;34.72;;;6.50;46.30;;;;;;5034353;28;20505;-59
2024/01/10 10:24:05;;;;;;;43.50;32.03;;;6.50;46.70;;;;;;5034313;28;20087;-64
2024/01/10 10:26:34;;;;;;;53.33;36.58;;;6.70;46.50;;;;;;5034256;28;20025;-62
2024/01/10 10:29:02;;;;;;;48.55;33.75;;;6.50;45.80;;;;;;5034105;28;20075;-58
2024/01/10 10:31:29;;;;;;;43.88;31.52;;;6.40;47.20;;;;;;5032832;28;20364;-60
2024/01/10 10:33:55;;;;;;;47.25;31.77;;;6.50;47.30;;;;;;5033691;28;20121;-61
2024/01/10 10:36:21;;;;;;;62.08;40.40;;;6.80;46.50;;;;;;5034012;28;20124;-65
2024/01/10 10:38:50;;;;;;;50.17;35.53;;;6.60;45.80;;;;;;5032924;28;20206;-65
2024/01/10 10:41:18;;;;;;;52.17;33.03;;;6.20;47.90;;;;;;5033770;28;20039;-61
2024/01/10 10:43:44;;;;;;;47.40;33.42;;;6.50;46.90;;;;;;5034062;28;20018;-59
2024/01/10 10:46:14;;;;;;;63.55;39.85;;;6.70;47.60;;;;;;5029213;28;20032;-65
2024/01/10 10:48:40;;;;;;;47.53;31.48;;;7.10;45.80;;;;;;5038292;28;20031;-65
2024/01/10 10:51:33;;;;;;;44.90;31.88;;;7.00;46.60;;;;;;5033109;28;20180;-63
2024/01/10 10:54:09;;;;;;;51.70;35.70;;;7.00;46.90;;;;;;5030512;28;20036;-67
2024/01/10 10:56:47;;;;;;;45.92;34.17;;;6.80;46.20;;;;;;5032638;28;20483;-64
2024/01/10 10:59:32;;;;;;;49.50;36.45;;;6.80;46.60;;;;;;5032555;28;20029;-62
2024/01/10 11:02:00;;;;;;;49.22;36.47;;;7.20;46.40;;;;;;5033837;28;20091;-65
2024/01/10 11:04:27;;;;;;;50.38;37.05;;;7.20;46.40;;;;;;5032515;28;20394;-63
2024/01/10 11:06:53;;;;;;;57.10;40.95;;;7.40;45.70;;;;;;5034086;28;20028;-61
2024/01/10 11:09:23;;;;;;;59.38;41.53;;;7.60;45.40;;;;;;5032443;28;20029;-62
2024/01/10 11:12:10;;;;;;;61.83;44.60;;;7.60;44.90;;;;;;5032404;28;20095;-63
2024/01/10 11:15:02;;;;;;;67.43;48.25;;;7.50;45.40;;;;;;5032631;28;20175;-66
2024/01/10 11:17:47;;;;;;;58.33;43.67;;;7.40;45.60;;;;;;5031601;28;20045;-62
2024/01/10 11:20:32;;;;;;;59.25;42.80;;;7.10;45.50;;;;;;5033627;28;20378;-62
2024/01/10 11:23:07;;;;;;;58.78;42.05;;;6.90;45.40;;;;;;5031494;28;20026;-60
2024/01/10 11:25:36;;;;;;;58.13;40.58;;;6.20;46.90;;;;;;5028595;28;20566;-61
2024/01/10 11:28:05;;;;;;;67.20;44.08;;;6.00;48.10;;;;;;5012515;28;20048;-62
2024/01/10 11:30:37;;;;;;;52.67;36.97;;;5.90;47.80;;;;;;5014016;28;20026;-66
2024/01/10 11:33:27;;;;;;;59.15;40.65;;;5.70;49.10;;;;;;5013718;28;20018;-63
2024/01/10 11:36:12;;;;;;;58.65;41.25;;;5.70;49.20;;;;;;5013878;28;20113;-63
2024/01/10 11:38:57;;;;;;;;;;;5.60;49.60;;;;;;5012841;28;20034;-63
2024/01/10 11:41:35;;;;;;;56.40;38.15;;;5.60;49.00;;;;;;5011793;28;19948;-62
2024/01/10 11:44:22;;;;;;;53.10;38.63;;;5.50;48.90;;;;;;5013849;28;20022;-64
2024/01/10 11:46:52;;;;;;;53.78;37.35;;;5.20;50.60;;;;;;5013430;28;20048;-61
2024/01/10 11:49:19;;;;;;;52.38;36.95;;;5.00;50.70;;;;;;5013459;28;20032;-64
2024/01/10 11:51:56;;;;;;;49.97;34.17;;;4.90;51.10;;;;;;5012787;28;20104;-65
2024/01/10 11:54:37;;;;;;;43.83;31.40;;;4.90;51.50;;;;;;5013128;28;20505;-67
2024/01/10 11:57:11;;;;;;;46.13;33.25;;;4.90;51.60;;;;;;5013694;28;20086;-65
2024/01/10 11:59:39;;;;;;;52.17;33.35;;;4.90;51.60;;;;;;5013418;28;20105;-66
2024/01/10 12:02:05;;;;;;;45.78;31.63;;;4.90;51.50;;;;;;5013209;28;20333;-63
2024/01/10 12:04:32;;;;;;;51.67;33.13;;;4.70;52.70;;;;;;5012812;28;20026;-65
2024/01/10 12:06:58;;;;;;;56.13;36.30;;;4.50;53.10;;;;;;5011801;28;20025;-63
2024/01/10 12:09:24;;;;;;;43.50;30.08;;;4.30;53.90;;;;;;5010717;28;20026;-64
2024/01/10 12:11:50;;;;;;;49.42;34.03;;;4.20;55.10;;;;;;5011159;28;20022;-65
2024/01/10 12:14:17;;;;;;;42.40;28.80;;;4.30;54.70;;;;;;5012125;28;20033;-62
2024/01/10 12:16:43;;;;;;;46.42;29.27;;;4.10;57.00;;;;;;5012932;28;20120;-65
2024/01/10 12:19:09;;;;;;;47.72;31.73;;;4.30;56.90;;;;;;5013362;28;20049;-64
2024/01/10 12:21:35;;;;;;;63.00;37.92;;;4.40;56.60;;;;;;5011869;28;20022;-64
2024/01/10 12:24:05;;;;;;;46.10;31.92;;;4.50;57.50;;;;;;5012458;28;20120;-58
2024/01/10 12:26:31;;;;;;;44.92;30.15;;;4.70;57.60;;;;;;5012385;28;20045;-65
2024/01/10 12:28:58;;;;;;;55.63;34.35;;;5.00;56.10;;;;;;5012266;28;20022;-61
2024/01/10 12:31:27;;;;;;;45.60;30.08;;;5.30;54.90;;;;;;5013455;28;20033;-60
2024/01/10 12:33:55;;;;;;;48.72;32.00;;;5.20;54.70;;;;;;5016417;28;20499;-65
2024/01/10 12:36:21;;;;;;;46.92;32.20;;;5.30;54.50;;;;;;5016513;28;20434;-61
2024/01/10 12:38:47;;;;;;;51.60;35.78;;;5.30;53.90;;;;;;5016850;28;20018;-65
2024/01/10 12:41:16;;;;;;;46.97;32.22;;;5.30;54.30;;;;;;5016528;28;20044;-63
2024/01/10 12:43:42;;;;;;;51.97;33.80;;;5.20;55.40;;;;;;5016433;28;20097;-64
2024/01/10 12:46:12;;;;;;;58.75;38.90;;;5.10;54.40;;;;;;5016518;28;20085;-64
2024/01/10 12:48:42;;;;;;;71.82;43.42;;;4.90;54.50;;;;;;5016613;28;20164;-65
2024/01/10 12:51:08;;;;;;;54.80;35.45;;;4.60;55.60;;;;;;5016350;28;20096;-64
2024/01/10 12:53:42;;;;;;;72.55;43.38;;;4.40;56.60;;;;;;5016271;28;20414;-65
2024/01/10 12:56:09;;;;;;;;;;;4.30;57.30;;;;;;5016815;28;20037;-66
2024/01/10 12:58:36;;;;;;;62.10;37.20;;;4.20;58.20;;;;;;5016032;28;20008;-64
2024/01/10 13:01:05;;;;;;;65.03;37.88;;;4.20;58.90;;;;;;5016187;28;20029;-66
2024/01/10 13:03:30;;;;;;;57.00;36.13;;;4.20;58.60;;;;;;5016434;28;20033;-65
2024/01/10 13:05:56;;;;;;;55.10;35.55;;;4.20;59.50;;;;;;5016128;28;20026;-63
2024/01/10 13:08:22;;;;;;;78.18;45.53;;;4.20;59.90;;;;;;5015974;28;20018;-63
2024/01/10 13:10:48;;;;;;;82.57;47.20;;;4.00;59.80;;;;;;5016114;28;20026;-63
2024/01/10 13:13:14;;;;;;;79.80;44.67;;;3.90;61.50;;;;;;5015888;28;20310;-62
2024/01/10 13:15:40;;;;;;;72.47;41.45;;;3.80;62.60;;;;;;5015815;28;20392;-64
2024/01/10 13:18:06;;;;;;;78.28;47.13;;;3.70;64.40;;;;;;5015866;28;20057;-61
2024/01/10 13:20:32;;;;;;;74.70;43.17;;;3.70;64.40;;;;;;5015896;28;20022;-63
2024/01/10 13:22:58;;;;;;;65.13;39.58;;;3.70;64.40;;;;;;5015695;28;20097;-61
2024/01/10 13:25:24;;;;;;;71.55;43.30;;;3.80;66.00;;;;;;5015633;28;20026;-66
2024/01/10 13:27:53;;;;;;;76.82;45.25;;;3.90;65.40;;;;;;5015515;28;20072;-62
2024/01/10 13:30:19;;;;;;;90.05;49.88;;;4.00;65.20;;;;;;5015657;28;20093;-65
2024/01/10 13:32:48;;;;;;;99.53;55.60;;;4.10;63.70;;;;;;5015558;28;20444;-64
2024/01/10 13:35:16;;;;;;;116.32;63.65;;;4.20;64.10;;;;;;5015473;28;20033;-67
2024/01/10 13:37:42;;;;;;;103.15;56.25;;;4.30;62.10;;;;;;5015777;28;20021;-63
2024/01/10 13:40:09;;;;;;;94.10;55.20;;;4.10;61.70;;;;;;5015330;28;20500;-64
2024/01/10 13:42:38;;;;;;;107.10;62.85;;;4.30;62.40;;;;;;5015067;28;20026;-61
2024/01/10 13:45:10;;;;;;;94.55;57.30;;;4.50;60.10;;;;;;5015404;28;20550;-63
2024/01/10 13:47:37;;;;;;;113.57;65.07;;;4.60;59.20;;;;;;5015463;28;20030;-63
2024/01/10 13:50:05;;;;;;;126.40;71.07;;;4.70;59.90;;;;;;5015412;28;20057;-64
2024/01/10 13:52:31;;;;;;;104.80;63.88;;;4.80;58.20;;;;;;5014959;28;20046;-66
2024/01/10 13:54:58;;;;;;;119.45;67.57;;;4.80;58.20;;;;;;5014924;28;20056;-61
2024/01/10 13:57:23;;;;;;;121.78;69.47;;;4.80;58.50;;;;;;5015151;28;20025;-64
2024/01/10 13:59:49;;;;;;;110.45;67.90;;;4.70;58.40;;;;;;5015006;28;20384;-64
2024/01/10 14:02:15;;;;;;;114.97;70.63;;;4.80;58.40;;;;;;5014955;28;20030;-63
2024/01/10 14:04:42;;;;;;;112.22;70.13;;;4.80;58.20;;;;;;5015026;28;20037;-64
2024/01/10 14:07:07;;;;;;;127.45;78.32;;;4.80;58.00;;;;;;5014982;28;20029;-63
2024/01/10 14:09:34;;;;;;;158.82;92.10;;;4.60;58.10;;;;;;5014620;28;20021;-59
2024/01/10 14:12:00;;;;;;;174.98;98.28;;;4.40;58.40;;;;;;5014857;28;20024;-63
2024/01/10 14:14:26;;;;;;;127.30;76.53;;;4.20;59.90;;;;;;5014807;28;20026;-61
2024/01/10 14:16:51;;;;;;;174.82;98.10;;;4.00;62.10;;;;;;5014649;28;20025;-64
2024/01/10 14:19:17;;;;;;;154.55;88.97;;;4.00;61.70;;;;;;5014780;28;20022;-62
2024/01/10 14:21:44;;;;;;;143.25;86.03;;;4.00;62.20;;;;;;5014805;28;20025;-62
2024/01/10 14:24:09;;;;;;;144.68;85.40;;;4.00;62.90;;;;;;5014276;28;20049;-66
2024/01/10 14:26:35;;;;;;;131.07;78.65;;;4.10;62.80;;;;;;5014605;28;20030;-64
2024/01/10 14:29:01;;;;;;;117.32;71.70;;;4.20;62.20;;;;;;5014644;28;20026;-64
2024/01/10 14:31:27;;;;;;;126.75;77.28;;;4.20;61.80;;;;;;5014479;28;20022;-62
2024/01/10 14:33:53;;;;;;;119.28;72.50;;;4.30;61.80;;;;;;5014686;28;20095;-63
2024/01/10 14:36:19;;;;;;;120.65;72.15;;;4.30;61.80;;;;;;5014329;28;20030;-66
2024/01/10 14:38:45;;;;;;;120.88;71.25;;;4.20;62.10;;;;;;5014161;28;20057;-63
2024/01/10 14:41:10;;;;;;;108.07;69.13;;;4.20;61.60;;;;;;5014269;28;20476;-65
2024/01/10 14:43:39;;;;;;;108.63;63.97;;;4.20;62.10;;;;;;5014415;28;20022;-62
2024/01/10 14:46:05;;;;;;;112.97;67.50;;;4.10;61.80;;;;;;5014157;28;20041;-61
2024/01/10 14:48:31;;;;;;;171.23;99.47;;;4.00;62.70;;;;;;5014139;28;20026;-64
2024/01/10 14:50:57;;;;;;;121.05;70.75;;;3.90;63.50;;;;;;5014119;28;20022;-62
2024/01/10 14:53:24;;;;;;;115.97;69.15;;;3.80;64.60;;;;;;5014009;28;20365;-60
2024/01/10 14:55:49;;;;;;;115.32;66.72;;;3.70;65.50;;;;;;5013754;28;20180;-62
2024/01/10 14:58:15;;;;;;;151.35;90.32;;;3.60;66.80;;;;;;5014050;28;20487;-63
2024/01/10 15:00:43;;;;;;;155.20;87.80;;;3.50;68.60;;;;;;5014040;28;20018;-63
2024/01/10 15:03:08;;;;;;;117.00;71.70;;;3.30;69.40;;;;;;5013899;28;20021;-63
2024/01/10 15:05:35;;;;;;;113.82;68.55;;;3.20;71.90;;;;;;5013975;28;20030;-61
2024/01/10 15:08:01;;;;;;;132.75;78.05;;;3.20;73.00;;;;;;5013744;28;20452;-62
2024/01/10 15:10:27;;;;;;;112.05;67.13;;;3.30;72.50;;;;;;5020942;28;20095;-63
2024/01/10 15:12:53;;;;;;;107.88;66.78;;;3.30;73.20;;;;;;5033593;28;20017;-61
2024/01/10 15:15:19;;;;;;;106.35;65.50;;;3.30;74.30;;;;;;5032624;28;20116;-65
2024/01/10 15:17:44;;;;;;;107.07;63.85;;;3.20;74.30;;;;;;5033071;28;20112;-62
2024/01/10 15:20:10;;;;;;;114.32;67.93;;;3.10;75.70;;;;;;5033003;28;20029;-60
2024/01/10 15:22:38;;;;;;;156.88;86.45;;;3.00;76.50;;;;;;5032631;28;20029;-65
2024/01/10 15:25:05;;;;;;;154.63;86.88;;;2.80;78.70;;;;;;5033663;28;20025;-63
2024/01/10 15:27:32;;;;;;;111.28;63.03;;;2.60;81.70;;;;;;5033637;28;20033;-66
2024/01/10 15:29:58;;;;;;;126.65;70.97;;;2.40;85.10;;;;;;5033429;28;20033;-62
2024/01/10 15:32:24;;;;;;;128.82;74.18;;;2.40;87.20;;;;;;5033343;28;20021;-63
2024/01/10 15:34:50;;;;;;;134.50;78.63;;;2.30;89.40;;;;;;5033059;28;20030;-63
2024/01/10 15:37:15;;;;;;;103.15;63.13;;;2.20;90.30;;;;;;5033140;28;20021;-60
2024/01/10 15:39:41;;;;;;;99.30;59.17;;;2.20;90.80;;;;;;5033237;28;20048;-62
2024/01/10 15:42:09;;;;;;;120.10;75.10;;;2.40;90.60;;;;;;5033086;28;20026;-63
2024/01/10 15:44:42;;;;;;;114.78;71.63;;;2.50;90.00;;;;;;5033183;28;20029;-65
2024/01/10 15:47:08;;;;;;;113.50;71.70;;;2.60;89.20;;;;;;5033159;28;20017;-61
2024/01/10 15:49:33;;;;;;;129.35;72.05;;;2.60;89.00;;;;;;5032986;28;20083;-63
2024/01/10 15:51:59;;;;;;;103.18;64.60;;;2.50;89.30;;;;;;5032685;28;20056;-62
2024/01/10 15:54:25;;;;;;;104.82;64.60;;;2.30;90.90;;;;;;5033106;28;20025;-67
2024/01/10 15:56:51;;;;;;;97.68;57.90;;;2.20;91.40;;;;;;5032854;28;20033;-65
2024/01/10 15:59:17;;;;;;;93.15;57.15;;;2.20;91.90;;;;;;5032959;28;20495;-64
2024/01/10 16:01:43;;;;;;;100.32;60.83;;;2.30;91.30;;;;;;5033051;28;20022;-65
2024/01/10 16:04:09;;;;;;;88.25;56.15;;;2.30;91.20;;;;;;5032892;28;20017;-64
2024/01/10 16:06:36;;;;;;;94.32;60.60;;;2.30;91.30;;;;;;5033657;28;20035;-67
2024/01/10 16:09:03;;;;;;;118.47;73.05;;;2.30;91.30;;;;;;5037067;28;20101;-67
2024/01/10 16:11:30;;;;;;;106.50;66.20;;;2.30;91.30;;;;;;5036894;28;20025;-63
2024/01/10 16:13:56;;;;;;;118.80;74.43;;;2.40;91.20;;;;;;5036902;28;20022;-66
2024/01/10 16:16:28;;;;;;;103.57;67.85;;;2.30;91.10;;;;;;5036705;28;20037;-64
2024/01/10 16:18:54;;;;;;;101.20;61.78;;;2.30;91.70;;;;;;5036744;28;20026;-66
2024/01/10 16:21:23;;;;;;;100.75;60.45;;;2.40;91.20;;;;;;5036743;28;20025;-65
2024/01/10 16:23:49;;;;;;;103.25;63.35;;;2.40;91.10;;;;;;5036795;28;20032;-60
2024/01/10 16:26:14;;;;;;;104.30;64.80;;;2.50;90.80;;;;;;5036556;28;20390;-67
2024/01/10 16:28:40;;;;;;;125.70;72.88;;;2.50;90.80;;;;;;5036659;28;20092;-66
2024/01/10 16:31:06;;;;;;;133.95;82.00;;;2.40;90.50;;;;;;5036589;28;20025;-65
2024/01/10 16:33:31;;;;;;;92.72;60.40;;;2.30;91.30;;;;;;5036533;28;20047;-62
2024/01/10 16:35:57;;;;;;;96.15;58.20;;;2.30;91.80;;;;;;5036261;28;20029;-65
2024/01/10 16:38:23;;;;;;;83.95;53.03;;;2.30;91.70;;;;;;5036590;28;20203;-65
2024/01/10 16:40:48;;;;;;;117.20;68.30;;;2.30;91.60;;;;;;5036397;28;20483;-66
2024/01/10 16:43:14;;;;;;;120.97;75.95;;;2.30;91.60;;;;;;5036350;28;20382;-64
2024/01/10 16:45:40;;;;;;;99.63;58.88;;;2.20;91.90;;;;;;5036472;28;20144;-64
2024/01/10 16:48:08;;;;;;;93.20;56.17;;;2.20;92.20;;;;;;5036243;28;20021;-60
2024/01/10 16:50:34;;;;;;;133.10;80.13;;;2.30;91.50;;;;;;5036021;28;20033;-66
2024/01/10 16:53:01;;;;;;;77.60;50.03;;;2.20;91.70;;;;;;5036025;28;20049;-65
2024/01/10 16:55:26;;;;;;;86.13;51.13;;;2.20;92.00;;;;;;5036341;28;20068;-62
2024/01/10 16:57:53;;;;;;;73.45;47.13;;;2.20;91.90;;;;;;5036269;28;20049;-61
2024/01/10 17:00:20;;;;;;;91.20;57.30;;;2.10;92.70;;;;;;5036062;28;20026;-62
2024/01/10 17:02:46;;;;;;;95.95;58.92;;;2.10;92.80;;;;;;5035956;28;20100;-65
2024/01/10 17:05:12;;;;;;;67.40;44.83;;;2.10;93.30;;;;;;5035658;28;20547;-63
2024/01/10 17:07:38;;;;;;;63.65;43.97;;;2.10;93.20;;;;;;5035912;28;20357;-61
2024/01/10 17:10:05;;;;;;;69.25;44.63;;;2.10;93.40;;;;;;5035956;28;20028;-66
2024/01/10 17:12:30;;;;;;;77.85;48.53;;;2.20;93.20;;;;;;5035666;28;20022;-64
2024/01/10 17:14:56;;;;;;;67.55;42.28;;;2.20;92.90;;;;;;5035915;28;20036;-64
2024/01/10 17:17:22;;;;;;;76.78;45.88;;;2.20;92.80;;;;;;5035366;28;20380;-66
2024/01/10 17:19:47;;;;;;;77.43;45.85;;;2.10;93.20;;;;;;5035449;28;20029;-64
2024/01/10 17:22:14;;;;;;;65.25;41.40;;;2.20;93.40;;;;;;5035596;28;20029;-63
2024/01/10 17:24:40;;;;;;;56.42;36.40;;;2.10;94.20;;;;;;5035558;28;20414;-64
2024/01/10 17:27:05;;;;;;;50.72;35.00;;;2.00;94.50;;;;;;5035520;28;20028;-64
2024/01/10 17:29:31;;;;;;;66.60;40.88;;;2.00;94.40;;;;;;5035298;28;20021;-62
2024/01/10 17:31:58;;;;;;;82.45;48.72;;;2.10;93.80;;;;;;5035465;28;20447;-59
2024/01/10 17:34:26;;;;;;;74.65;45.10;;;2.10;94.00;;;;;;5035292;28;20059;-63
2024/01/10 17:36:51;;;;;;;67.65;43.22;;;2.00;93.50;;;;;;5035241;28;20030;-63
2024/01/10 17:39:17;;;;;;;64.35;40.95;;;1.90;92.80;;;;;;5035330;28;20545;-60
2024/01/10 17:41:43;;;;;;;67.13;42.85;;;1.70;93.50;;;;;;5035550;28;20021;-62
2024/01/10 17:44:08;;;;;;;66.22;43.30;;;1.60;93.30;;;;;;5035159;28;20064;-63
2024/01/10 17:46:34;;;;;;;65.93;42.22;;;1.50;93.60;;;;;;5035290;28;20037;-64
2024/01/10 17:49:01;;;;;;;59.47;38.50;;;1.30;93.60;;;;;;5034938;28;20060;-64
2024/01/10 17:51:27;;;;;;;48.83;33.38;;;1.30;94.80;;;;;;5034859;28;20076;-63
2024/01/10 17:53:54;;;;;;;40.55;28.40;;;1.30;94.30;;;;;;5035091;28;20045;-59
2024/01/10 17:56:20;;;;;;;35.33;25.85;;;1.20;93.10;;;;;;5035031;28;20025;-61
2024/01/10 17:58:46;;;;;;;30.08;21.98;;;1.20;93.80;;;;;;5034814;28;20022;-65
2024/01/10 18:01:12;;;;;;;30.85;21.20;;;1.10;93.10;;;;;;5035582;28;20076;-61
2024/01/10 18:03:38;;;;;;;29.52;21.08;;;1.10;93.40;;;;;;5034679;28;20376;-64
2024/01/10 18:06:04;;;;;;;27.75;19.85;;;1.10;93.90;;;;;;5034796;28;20049;-63
2024/01/10 18:08:30;;;;;;;23.30;18.33;;;1.10;93.40;;;;;;5035001;28;20100;-63
2024/01/10 18:10:56;;;;;;;43.65;29.70;;;1.20;93.60;;;;;;5034752;28;20045;-63
2024/01/10 18:13:21;;;;;;;34.22;24.85;;;1.30;92.90;;;;;;5034691;28;20490;-63
2024/01/10 18:15:48;;;;;;;38.22;24.33;;;1.10;92.70;;;;;;5033228;28;20116;-63
2024/01/10 18:18:14;;;;;;;34.35;23.17;;;1.20;92.80;;;;;;5034514;28;20026;-61
2024/01/10 18:20:40;;;;;;;43.20;27.83;;;1.10;93.10;;;;;;5034882;28;20352;-65
2024/01/10 18:23:06;;;;;;;35.75;24.05;;;1.10;93.30;;;;;;5034406;28;20383;-67
2024/01/10 18:25:32;;;;;;;38.60;25.33;;;1.20;93.10;;;;;;5034480;28;20029;-63
2024/01/10 18:27:58;;;;;;;47.70;32.20;;;1.20;92.50;;;;;;5034404;28;20017;-65
2024/01/10 18:30:24;;;;;;;62.13;40.72;;;1.20;92.40;;;;;;5033445;28;20026;-61
2024/01/10 18:32:51;;;;;;;53.53;34.90;;;1.10;92.40;;;;;;5034310;28;20032;-63
2024/01/10 18:35:20;;;;;;;61.65;40.22;;;0.90;93.80;;;;;;5034147;28;20061;-65
2024/01/10 18:37:49;;;;;;;65.90;42.75;;;0.90;93.80;;;;;;5034119;28;20021;-62
2024/01/10 18:40:15;;;;;;;60.88;39.10;;;0.80;93.90;;;;;;5034138;28;20104;-64
2024/01/10 18:42:41;;;;;;;57.40;36.90;;;0.80;93.60;;;;;;5034162;28;20109;-64
2024/01/10 18:45:07;;;;;;;51.05;34.95;;;0.80;93.30;;;;;;5033810;28;20030;-66
2024/01/10 18:47:33;;;;;;;55.72;37.28;;;0.70;92.70;;;;;;5034156;28;20384;-62
2024/01/10 18:49:59;;;;;;;43.92;29.83;;;0.70;92.60;;;;;;5033747;28;20048;-65
2024/01/10 18:52:25;;;;;;;51.97;35.38;;;0.60;92.50;;;;;;5033744;28;20057;-62
2024/01/10 18:54:51;;;;;;;49.83;31.85;;;0.60;92.40;;;;;;5034068;28;20026;-62
2024/01/10 18:57:18;;;;;;;68.03;43.33;;;0.60;92.70;;;;;;5033951;28;20044;-64
2024/01/10 18:59:44;;;;;;;50.35;32.58;;;0.50;92.40;;;;;;5033777;28;20033;-63
2024/01/10 19:02:11;;;;;;;61.10;39.03;;;0.50;92.80;;;;;;5033791;28;20018;-63
2024/01/10 19:04:37;;;;;;;53.28;35.08;;;0.50;92.10;;;;;;5033674;28;20024;-62
2024/01/10 19:07:03;;;;;;;50.75;34.50;;;0.40;91.70;;;;;;5033632;28;20535;-62
2024/01/10 19:09:29;;;;;;;50.20;32.55;;;0.40;91.40;;;;;;5031929;28;20026;-62
2024/01/10 19:11:55;;;;;;;44.10;28.98;;;0.30;91.50;;;;;;5031930;28;20380;-63
2024/01/10 19:14:21;;;;;;;43.05;29.60;;;0.30;91.70;;;;;;5032357;28;20045;-64
2024/01/10 19:16:48;;;;;;;40.47;26.30;;;0.20;91.10;;;;;;5032260;28;20060;-65
2024/01/10 19:19:15;;;;;;;37.17;27.25;;;0.10;91.00;;;;;;5032457;28;20036;-65
2024/01/10 19:21:41;;;;;;;46.58;30.45;;;0.00;90.60;;;;;;5032990;28;20111;-62
2024/01/10 19:24:07;;;;;;;34.30;23.77;;;-0.10;91.40;;;;;;5033079;28;20375;-62
2024/01/10 19:26:32;;;;;;;37.03;25.70;;;-0.20;91.40;;;;;;5033336;28;20032;-63
2024/01/10 19:28:58;;;;;;;49.67;32.10;;;-0.10;92.20;;;;;;5033141;28;20068;-63
2024/01/10 19:31:24;;;;;;;47.25;33.83;;;-0.10;91.30;;;;;;5033210;28;20025;-62
2024/01/10 19:33:51;;;;;;;41.75;27.98;;;-0.20;91.20;;;;;;5033528;28;20029;-66
2024/01/10 19:36:20;;;;;;;47.45;33.78;;;-0.30;91.40;;;;;;5033167;28;20504;-65
2024/01/10 19:38:46;;;;;;;47.67;31.73;;;-0.50;91.60;;;;;;5033084;28;20029;-67
2024/01/10 19:41:26;;;;;;;48.65;31.90;;;-0.70;92.70;;;;;;5033347;28;20026;-65
2024/01/10 19:43:52;;;;;;;39.22;28.02;;;-0.80;93.20;;;;;;5032974;28;20079;-67
2024/01/10 19:46:18;;;;;;;52.88;34.97;;;-1.00;93.20;;;;;;5032997;28;20030;-64
2024/01/10 19:48:47;;;;;;;51.08;34.42;;;-1.10;93.60;;;;;;5033140;28;20021;-64
2024/01/10 19:51:13;;;;;;;51.42;33.08;;;-1.20;94.10;;;;;;5032981;28;20041;-63
2024/01/10 19:53:39;;;;;;;52.70;33.25;;;-1.20;94.30;;;;;;5033038;28;20064;-65
2024/01/10 19:56:05;;;;;;;53.92;32.17;;;-1.10;94.10;;;;;;5033041;28;20064;-65
2024/01/10 19:58:31;;;;;;;50.10;29.83;;;-1.10;93.90;;;;;;5032806;28;20026;-63
2024/01/10 20:00:57;;;;;;;43.15;27.83;;;-1.10;93.40;;;;;;5032842;28;20020;-66
2024/01/10 20:03:25;;;;;;;58.30;35.78;;;-1.10;93.60;;;;;;5033019;28;20018;-65
2024/01/10 20:05:51;;;;;;;52.22;33.70;;;-1.10;93.10;;;;;;5031684;28;20490;-67
2024/01/10 20:08:17;;;;;;;62.88;40.05;;;-1.10;93.30;;;;;;5032754;28;20025;-66
2024/01/10 20:10:43;;;;;;;58.78;38.55;;;-1.30;93.30;;;;;;5032985;28;20044;-66
2024/01/10 20:13:09;;;;;;;54.92;35.92;;;-1.40;94.10;;;;;;5032889;28;20026;-62
2024/01/10 20:15:34;;;;;;;55.70;35.55;;;-1.50;94.40;;;;;;5032701;28;20498;-67
2024/01/10 20:18:00;;;;;;;54.58;35.10;;;-1.40;93.80;;;;;;5032785;28;20018;-61
2024/01/10 20:20:29;;;;;;;54.13;35.40;;;-1.40;94.00;;;;;;5032842;28;20475;-65
2024/01/10 20:22:57;;;;;;;66.20;39.65;;;-1.40;94.20;;;;;;5032713;28;20034;-62